createdAt,value
2023-02-18T00:00:38.188Z,10.43
2023-02-18T00:03:03.902Z,6.03
2023-02-18T00:05:29.623Z,11.55
2023-02-18T00:07:55.348Z,11.02
2023-02-18T00:10:21.131Z,17.60
2023-02-18T00:12:46.911Z,12.30
2023-02-18T00:15:13.042Z,11.43
2023-02-18T00:17:39.132Z,14.75
2023-02-18T00:20:06.162Z,10.38
2023-02-18T00:22:31.953Z,19.15
2023-02-18T00:24:57.710Z,10.18
2023-02-18T00:27:23.454Z,17.23
2023-02-18T00:29:49.171Z,14.88
2023-02-18T00:32:14.917Z,10.93
2023-02-18T00:34:40.701Z,10.15
2023-02-18T00:37:06.424Z,11.77
2023-02-18T00:39:32.157Z,8.43
2023-02-18T00:41:57.899Z,8.90
2023-02-18T00:44:23.620Z,14.80
2023-02-18T00:46:49.360Z,13.50
2023-02-18T00:49:15.194Z,10.10
2023-02-18T00:51:40.980Z,9.40
2023-02-18T00:54:06.700Z,12.85
2023-02-18T00:56:32.732Z,11.82
2023-02-18T00:58:58.569Z,8.52
2023-02-18T01:01:24.472Z,10.23
2023-02-18T01:03:50.360Z,9.90
2023-02-18T01:06:16.129Z,12.68
2023-02-18T01:08:41.978Z,18.13
2023-02-18T01:11:08.553Z,9.82
2023-02-18T01:13:34.452Z,6.88
2023-02-18T01:16:00.258Z,8.98
2023-02-18T01:18:26.432Z,12.93
2023-02-18T01:20:52.262Z,7.80
2023-02-18T01:23:18.485Z,9.10
2023-02-18T01:25:44.227Z,15.25
2023-02-18T01:28:10.682Z,18.02
2023-02-18T01:30:36.414Z,10.60
2023-02-18T01:33:02.152Z,8.85
2023-02-18T01:35:28.028Z,11.45
2023-02-18T01:37:53.747Z,10.40
2023-02-18T01:40:20.933Z,8.25
2023-02-18T01:42:46.691Z,12.32
2023-02-18T01:45:31.322Z,9.00
2023-02-18T01:47:57.214Z,6.65
2023-02-18T01:50:23.508Z,9.82
2023-02-18T01:52:49.326Z,12.10
2023-02-18T01:55:15.410Z,15.85
2023-02-18T01:57:41.143Z,7.65
2023-02-18T02:00:11.529Z,15.40
2023-02-18T02:02:39.851Z,8.65
2023-02-18T02:05:05.777Z,14.35
2023-02-18T02:07:31.541Z,9.05
2023-02-18T02:09:58.605Z,10.13
2023-02-18T02:12:32.749Z,9.93
2023-02-18T02:15:01.538Z,10.27
2023-02-18T02:17:36.895Z,9.30
2023-02-18T02:20:31.335Z,11.90
2023-02-18T02:23:06.550Z,9.85
2023-02-18T02:25:35.335Z,6.63
2023-02-18T02:28:13.834Z,10.90
2023-02-18T02:30:54.769Z,8.80
2023-02-18T02:33:29.742Z,9.93
2023-02-18T02:36:14.902Z,10.88
2023-02-18T02:38:50.974Z,16.00
2023-02-18T02:41:35.483Z,5.63
2023-02-18T02:44:14.532Z,11.48
2023-02-18T02:46:43.162Z,8.13
2023-02-18T02:49:32.265Z,8.20
2023-02-18T02:51:57.950Z,11.38
2023-02-18T02:54:25.372Z,14.10
2023-02-18T02:57:04.512Z,9.25
2023-02-18T02:59:30.693Z,9.20
2023-02-18T03:02:05.278Z,8.40
2023-02-18T03:04:52.498Z,7.85
2023-02-18T03:07:36.513Z,9.23
2023-02-18T03:10:04.953Z,9.18
2023-02-18T03:12:30.692Z,11.00
2023-02-18T03:15:04.364Z,5.22
2023-02-18T03:17:34.241Z,7.88
2023-02-18T03:20:12.517Z,13.13
2023-02-18T03:22:40.711Z,6.32
2023-02-18T03:25:06.879Z,4.80
2023-02-18T03:27:59.074Z,9.43
2023-02-18T03:30:36.346Z,8.85
2023-02-18T03:33:06.816Z,12.32
2023-02-18T03:35:33.126Z,6.68
2023-02-18T03:38:05.304Z,5.68
2023-02-18T03:40:31.483Z,6.22
2023-02-18T03:42:58.272Z,6.63
2023-02-18T03:45:24.501Z,7.35
2023-02-18T03:47:50.229Z,5.72
2023-02-18T03:50:16.055Z,7.75
2023-02-18T03:52:41.855Z,5.82
2023-02-18T03:55:08.775Z,12.25
2023-02-18T03:57:34.816Z,12.43
2023-02-18T04:00:00.594Z,9.65
2023-02-18T04:02:26.324Z,6.78
2023-02-18T04:04:52.138Z,10.50
2023-02-18T04:07:17.877Z,9.57
2023-02-18T04:09:43.762Z,6.43
2023-02-18T04:12:09.836Z,7.60
2023-02-18T04:14:35.600Z,2.72
2023-02-18T04:17:01.334Z,5.15
2023-02-18T04:19:27.148Z,10.40
2023-02-18T04:21:52.864Z,7.15
2023-02-18T04:24:18.594Z,5.47
2023-02-18T04:26:44.383Z,6.65
2023-02-18T04:29:10.133Z,8.52
2023-02-18T04:31:35.973Z,7.68
2023-02-18T04:34:01.729Z,12.48
2023-02-18T04:36:27.445Z,5.18
2023-02-18T04:38:53.230Z,8.85
2023-02-18T04:41:18.972Z,9.18
2023-02-18T04:43:44.682Z,4.50
2023-02-18T04:46:10.618Z,9.27
2023-02-18T04:48:36.749Z,7.65
2023-02-18T04:51:03.163Z,8.48
2023-02-18T04:53:28.936Z,10.95
2023-02-18T04:55:54.693Z,7.57
2023-02-18T04:58:20.792Z,7.32
2023-02-18T05:00:46.748Z,5.85
2023-02-18T05:03:13.003Z,8.68
2023-02-18T05:05:38.794Z,8.13
2023-02-18T05:08:04.656Z,10.48
2023-02-18T05:10:30.499Z,5.45
2023-02-18T05:12:56.231Z,8.13
2023-02-18T05:15:21.958Z,6.20
2023-02-18T05:17:47.692Z,5.43
2023-02-18T05:20:13.436Z,5.10
2023-02-18T05:22:39.284Z,8.25
2023-02-18T05:25:05.623Z,5.57
2023-02-18T05:27:31.381Z,8.20
2023-02-18T05:29:57.114Z,7.90
2023-02-18T05:32:23.318Z,3.95
2023-02-18T05:34:49.059Z,7.65
2023-02-18T05:37:14.816Z,8.90
2023-02-18T05:39:41.093Z,9.70
2023-02-18T05:42:07.159Z,5.95
2023-02-18T05:44:32.979Z,5.60
2023-02-18T05:47:03.362Z,7.88
2023-02-18T05:49:29.698Z,9.32
2023-02-18T05:51:55.796Z,5.15
2023-02-18T05:54:21.684Z,7.18
2023-02-18T05:56:47.458Z,4.10
2023-02-18T05:59:13.519Z,8.57
2023-02-18T06:01:39.943Z,6.93
2023-02-18T06:04:05.836Z,9.43
2023-02-18T06:06:31.623Z,8.65
2023-02-18T06:08:57.389Z,4.28
2023-02-18T06:11:23.119Z,5.85
2023-02-18T06:13:48.847Z,4.00
2023-02-18T06:16:14.625Z,11.07
2023-02-18T06:18:40.354Z,7.30
2023-02-18T06:21:06.091Z,4.88
2023-02-18T06:23:31.808Z,6.57
2023-02-18T06:25:57.549Z,9.00
2023-02-18T06:28:23.269Z,4.72
2023-02-18T06:30:50.075Z,5.35
2023-02-18T06:33:15.802Z,6.60
2023-02-18T06:35:41.603Z,6.38
2023-02-18T06:38:07.335Z,9.25
2023-02-18T06:40:33.474Z,6.43
2023-02-18T06:42:59.239Z,7.80
2023-02-18T06:45:24.961Z,7.35
2023-02-18T06:47:50.694Z,6.45
2023-02-18T06:50:16.659Z,5.90
2023-02-18T06:52:42.382Z,5.25
2023-02-18T06:55:11.004Z,5.97
2023-02-18T06:57:36.795Z,9.75
2023-02-18T07:00:03.744Z,7.65
2023-02-18T07:02:29.447Z,9.50
2023-02-18T07:04:55.231Z,15.00
2023-02-18T07:07:20.987Z,9.45
2023-02-18T07:09:46.736Z,7.15
2023-02-18T07:12:12.438Z,7.95
2023-02-18T07:14:38.158Z,6.47
2023-02-18T07:17:03.927Z,6.85
2023-02-18T07:19:29.678Z,6.88
2023-02-18T07:21:56.968Z,6.38
2023-02-18T07:24:23.011Z,11.38
2023-02-18T07:26:48.831Z,9.98
2023-02-18T07:29:14.589Z,3.88
2023-02-18T07:31:40.454Z,9.25
2023-02-18T07:34:06.234Z,4.05
2023-02-18T07:36:31.941Z,9.35
2023-02-18T07:38:57.714Z,10.25
2023-02-18T07:41:23.440Z,11.65
2023-02-18T07:43:49.518Z,12.25
2023-02-18T07:46:15.349Z,15.38
2023-02-18T07:48:41.395Z,5.35
2023-02-18T07:51:08.384Z,10.05
2023-02-18T07:53:34.542Z,9.43
2023-02-18T07:56:00.638Z,5.22
2023-02-18T07:58:27.673Z,6.47
2023-02-18T08:00:53.962Z,7.85
2023-02-18T08:03:24.444Z,24.42
2023-02-18T08:05:50.935Z,11.05
2023-02-18T08:08:19.783Z,8.98
2023-02-18T08:10:46.031Z,14.20
2023-02-18T08:13:12.062Z,7.38
2023-02-18T08:15:38.203Z,11.15
2023-02-18T08:18:04.632Z,9.68
2023-02-18T08:20:30.852Z,6.95
2023-02-18T08:22:56.828Z,7.35
2023-02-18T08:25:29.486Z,8.32
2023-02-18T08:27:55.725Z,6.50
2023-02-18T08:30:21.497Z,5.70
2023-02-18T08:32:47.317Z,8.02
2023-02-18T08:35:16.293Z,7.97
2023-02-18T08:37:53.638Z,13.50
2023-02-18T08:40:20.628Z,8.95
2023-02-18T08:42:46.469Z,8.38
2023-02-18T08:45:12.238Z,12.95
2023-02-18T08:48:17.478Z,6.72
2023-02-18T08:50:26.080Z,6.28
2023-02-18T08:52:52.323Z,10.75
2023-02-18T08:55:20.608Z,15.23
2023-02-18T08:57:47.409Z,13.35
2023-02-18T09:00:15.486Z,11.05
2023-02-18T09:02:43.085Z,12.57
2023-02-18T09:05:14.414Z,7.07
2023-02-18T09:07:40.633Z,11.73
2023-02-18T09:10:07.438Z,6.25
2023-02-18T09:12:33.610Z,8.02
2023-02-18T09:15:00.026Z,6.45
2023-02-18T09:17:26.219Z,9.80
2023-02-18T09:19:52.294Z,8.63
2023-02-18T09:22:18.242Z,10.27
2023-02-18T09:24:44.424Z,16.02
2023-02-18T09:27:11.295Z,8.55
2023-02-18T09:29:38.363Z,9.52
2023-02-18T09:32:04.759Z,10.65
2023-02-18T09:34:34.067Z,11.52
2023-02-18T09:36:59.984Z,6.65
2023-02-18T09:39:26.205Z,12.63
2023-02-18T09:41:54.069Z,8.00
2023-02-18T09:44:26.501Z,6.25
2023-02-18T09:46:58.439Z,9.85
2023-02-18T09:49:37.748Z,11.77
2023-02-18T09:52:11.027Z,9.43
2023-02-18T09:54:36.857Z,4.10
2023-02-18T09:57:03.325Z,10.02
2023-02-18T09:59:29.951Z,9.98
2023-02-18T10:01:56.908Z,7.57
2023-02-18T10:04:31.936Z,7.15
2023-02-18T10:06:58.395Z,14.20
2023-02-18T10:09:29.196Z,9.98
2023-02-18T10:14:21.031Z,7.40
2023-02-18T10:16:48.792Z,9.20
2023-02-18T10:19:33.219Z,8.68
2023-02-18T10:22:01.807Z,9.50
2023-02-18T10:24:42.405Z,8.57
2023-02-18T10:27:08.774Z,8.68
2023-02-18T10:29:35.852Z,10.13
2023-02-18T10:32:05.378Z,13.43
2023-02-18T10:34:53.201Z,9.25
2023-02-18T10:37:26.839Z,8.32
2023-02-18T10:40:11.824Z,8.82
2023-02-18T10:42:56.750Z,8.52
2023-02-18T10:45:25.583Z,9.82
2023-02-18T10:48:18.261Z,5.38
2023-02-18T10:50:46.201Z,8.20
2023-02-18T10:53:30.758Z,6.47
2023-02-18T10:55:58.213Z,7.47
2023-02-18T10:58:36.364Z,5.70
2023-02-18T11:01:04.705Z,5.10
2023-02-18T11:03:47.329Z,5.95
2023-02-18T11:06:33.919Z,7.55
2023-02-18T11:08:59.905Z,6.90
2023-02-18T11:11:37.905Z,6.18
2023-02-18T11:14:05.083Z,4.82
2023-02-18T11:16:39.010Z,3.63
2023-02-18T11:19:07.617Z,4.10
2023-02-18T11:21:38.312Z,3.42
2023-02-18T11:24:16.600Z,2.97
2023-02-18T11:26:44.114Z,2.17
2023-02-18T11:29:12.834Z,5.78
2023-02-18T11:31:49.389Z,5.60
2023-02-18T11:34:19.676Z,4.60
2023-02-18T11:36:46.851Z,3.83
2023-02-18T11:39:18.085Z,3.38
2023-02-18T11:41:46.896Z,5.38
2023-02-18T11:44:18.815Z,4.18
2023-02-18T11:46:56.157Z,6.38
2023-02-18T11:49:24.455Z,4.68
2023-02-18T11:51:50.967Z,2.53
2023-02-18T11:54:23.189Z,4.10
2023-02-18T11:56:57.696Z,3.40
2023-02-18T11:59:23.964Z,3.58
2023-02-18T12:01:51.292Z,2.50
2023-02-18T12:04:56.187Z,4.85
2023-02-18T12:07:24.568Z,4.78
2023-02-18T12:09:52.536Z,4.68
2023-02-18T12:15:09.020Z,5.55
2023-02-18T12:17:51.129Z,3.03
2023-02-18T12:20:36.137Z,3.10
2023-02-18T12:23:21.476Z,3.17
2023-02-18T12:25:57.622Z,3.17
2023-02-18T12:28:23.520Z,5.93
2023-02-18T12:31:03.836Z,3.80
2023-02-18T12:33:51.728Z,4.15
2023-02-18T12:36:42.855Z,11.35
2023-02-18T12:39:11.383Z,4.93
2023-02-18T12:41:43.394Z,3.70
2023-02-18T12:44:29.567Z,2.97
2023-02-18T12:47:14.013Z,3.83
2023-02-18T12:49:58.757Z,3.60
2023-02-18T12:52:37.408Z,3.13
2023-02-18T12:55:23.471Z,2.40
2023-02-18T12:58:09.604Z,1.95
2023-02-18T13:00:53.906Z,2.20
2023-02-18T13:03:38.833Z,2.38
2023-02-18T13:06:23.868Z,2.60
2023-02-18T13:08:57.733Z,2.55
2023-02-18T13:11:47.343Z,2.95
2023-02-18T13:14:19.592Z,3.70
2023-02-18T13:16:47.033Z,2.75
2023-02-18T13:19:22.244Z,2.28
2023-02-18T13:21:50.378Z,2.33
2023-02-18T13:24:31.904Z,1.20
2023-02-18T13:27:02.824Z,1.23
2023-02-18T13:29:32.929Z,3.72
2023-02-18T13:32:11.622Z,2.20
2023-02-18T13:35:13.187Z,1.70
2023-02-18T13:38:02.394Z,2.05
2023-02-18T13:40:30.751Z,2.88
2023-02-18T13:43:15.428Z,1.35
2023-02-18T13:45:42.112Z,1.75
2023-02-18T13:48:41.527Z,2.35
2023-02-18T13:51:08.818Z,2.80
2023-02-18T13:53:36.761Z,1.67
2023-02-18T13:56:05.829Z,2.55
2023-02-18T13:58:36.382Z,4.22
2023-02-18T14:01:12.261Z,1.65
2023-02-18T14:03:49.622Z,2.72
2023-02-18T14:06:38.921Z,2.10
2023-02-18T14:09:25.264Z,1.20
2023-02-18T14:11:55.721Z,3.70
2023-02-18T14:14:24.907Z,5.10
2023-02-18T14:17:09.665Z,1.77
2023-02-18T14:19:35.828Z,2.10
2023-02-18T14:22:20.898Z,2.53
2023-02-18T14:24:48.778Z,1.75
2023-02-18T14:27:16.750Z,1.70
2023-02-18T14:29:45.760Z,1.73
2023-02-18T14:32:17.847Z,1.92
2023-02-18T14:35:05.869Z,1.10
2023-02-18T14:37:38.190Z,3.20
2023-02-18T14:40:07.205Z,2.75
2023-02-18T14:42:46.497Z,1.20
2023-02-18T14:45:12.246Z,2.05
2023-02-18T14:47:56.738Z,5.82
2023-02-18T14:50:23.211Z,1.13
2023-02-18T14:53:00.224Z,0.88
2023-02-18T14:55:30.811Z,3.03
2023-02-18T14:58:07.241Z,0.80
2023-02-18T15:00:39.878Z,1.75
2023-02-18T15:03:10.799Z,2.28
2023-02-18T15:05:37.775Z,0.85
2023-02-18T15:08:05.319Z,0.75
2023-02-18T15:10:45.429Z,0.80
2023-02-18T15:13:18.143Z,0.98
2023-02-18T15:15:44.882Z,0.75
2023-02-18T15:18:19.407Z,0.55
2023-02-18T15:20:45.782Z,0.85
2023-02-18T15:23:15.309Z,1.13
2023-02-18T15:25:41.966Z,1.27
2023-02-18T15:28:20.148Z,2.22
2023-02-18T15:30:46.700Z,0.85
2023-02-18T15:33:13.764Z,1.60
2023-02-18T15:35:47.996Z,3.25
2023-02-18T15:38:17.064Z,1.77
2023-02-18T15:40:45.298Z,1.48
2023-02-18T15:43:15.618Z,0.50
2023-02-18T15:45:43.554Z,1.00
2023-02-18T15:48:28.742Z,1.52
2023-02-18T15:51:02.748Z,1.40
2023-02-18T15:53:36.732Z,3.05
2023-02-18T15:56:06.104Z,1.38
2023-02-18T15:58:33.378Z,1.17
2023-02-18T16:01:00.591Z,1.85
2023-02-18T16:03:26.462Z,1.23
2023-02-18T16:06:22.000Z,1.98
2023-02-18T16:09:24.133Z,0.80
2023-02-18T16:11:52.700Z,0.90
2023-02-18T16:14:23.368Z,1.15
2023-02-18T16:16:59.388Z,1.58
2023-02-18T16:19:25.387Z,1.15
2023-02-18T16:21:51.170Z,1.10
2023-02-18T16:24:27.382Z,1.48
2023-02-18T16:26:54.240Z,0.75
2023-02-18T16:29:23.437Z,1.00
2023-02-18T16:31:49.432Z,0.57
2023-02-18T16:34:15.401Z,0.90
2023-02-18T16:37:01.186Z,0.80
2023-02-18T16:39:32.152Z,1.17
2023-02-18T16:41:58.013Z,1.60
2023-02-18T16:44:23.932Z,1.15
2023-02-18T16:46:49.846Z,2.47
2023-02-18T16:49:16.328Z,1.17
2023-02-18T16:51:42.595Z,0.90
2023-02-18T16:54:10.498Z,0.95
2023-02-18T16:56:36.275Z,0.82
2023-02-18T16:59:02.111Z,1.20
2023-02-18T17:01:29.729Z,1.23
2023-02-18T17:04:05.400Z,1.38
2023-02-18T17:06:31.620Z,2.88
2023-02-18T17:08:57.676Z,1.75
2023-02-18T17:11:25.453Z,0.88
2023-02-18T17:13:51.779Z,1.38
2023-02-18T17:16:18.101Z,1.48
2023-02-18T17:18:44.535Z,1.10
2023-02-18T17:21:14.694Z,2.10
2023-02-18T17:23:40.960Z,1.45
2023-02-18T17:26:11.071Z,2.22
2023-02-18T17:28:37.280Z,0.98
2023-02-18T17:31:03.311Z,4.30
2023-02-18T17:33:29.158Z,1.40
2023-02-18T17:36:01.194Z,1.65
2023-02-18T17:38:27.142Z,2.40
2023-02-18T17:40:53.104Z,2.35
2023-02-18T17:43:19.059Z,0.73
2023-02-18T17:45:49.200Z,2.15
2023-02-18T17:50:55.849Z,2.50
2023-02-18T17:53:22.003Z,1.95
2023-02-18T17:55:48.243Z,7.90
2023-02-18T17:58:14.650Z,2.03
2023-02-18T18:00:45.327Z,1.50
2023-02-18T18:03:12.481Z,5.72
2023-02-18T18:05:56.387Z,2.42
2023-02-18T18:08:22.353Z,4.25
2023-02-18T18:10:56.650Z,2.67
2023-02-18T18:13:23.721Z,12.95
2023-02-18T18:15:51.827Z,5.32
2023-02-18T18:18:17.981Z,3.80
2023-02-18T18:20:45.656Z,5.70
2023-02-18T18:23:12.715Z,6.80
2023-02-18T18:25:41.156Z,6.03
2023-02-18T18:28:08.209Z,5.93
2023-02-18T18:30:35.784Z,4.13
2023-02-18T18:33:07.016Z,6.35
2023-02-18T18:35:34.567Z,4.95
2023-02-18T18:38:01.869Z,6.00
2023-02-18T18:40:32.314Z,4.78
2023-02-18T18:42:59.169Z,6.38
2023-02-18T18:45:27.610Z,3.72
2023-02-18T18:47:54.029Z,5.53
2023-02-18T18:50:20.942Z,8.40
2023-02-18T18:52:47.537Z,4.43
2023-02-18T18:58:00.690Z,4.40
2023-02-18T19:00:28.747Z,4.15
2023-02-18T19:02:55.206Z,5.00
2023-02-18T19:05:37.602Z,5.65
2023-02-18T19:08:04.420Z,6.78
2023-02-18T19:10:32.328Z,4.15
2023-02-18T19:13:03.839Z,3.83
2023-02-18T19:15:29.936Z,4.88
2023-02-18T19:17:57.042Z,4.10
2023-02-18T19:20:24.554Z,4.05
2023-02-18T19:22:50.405Z,4.10
2023-02-18T19:25:17.331Z,2.63
2023-02-18T19:27:43.871Z,2.38
2023-02-18T19:30:15.883Z,2.80
2023-02-18T19:32:43.213Z,1.45
2023-02-18T19:35:09.390Z,1.00
2023-02-18T19:37:36.267Z,1.85
2023-02-18T19:40:03.272Z,1.83
2023-02-18T19:42:29.678Z,0.77
2023-02-18T19:44:55.649Z,1.40
2023-02-18T19:47:22.669Z,1.90
2023-02-18T19:49:49.832Z,1.67
2023-02-18T19:52:15.678Z,1.40
2023-02-18T19:54:41.543Z,2.85
2023-02-18T19:57:08.323Z,1.80
2023-02-18T19:59:36.262Z,1.30
2023-02-18T20:02:03.455Z,1.20
2023-02-18T20:04:30.558Z,0.85
2023-02-18T20:06:56.941Z,0.68
2023-02-18T20:09:23.139Z,1.52
2023-02-18T20:11:50.438Z,0.95
2023-02-18T20:14:19.650Z,0.98
2023-02-18T20:16:45.532Z,1.45
2023-02-18T20:19:11.422Z,1.80
2023-02-18T20:21:42.284Z,2.58
2023-02-18T20:24:09.913Z,0.88
2023-02-18T20:26:35.811Z,1.27
2023-02-18T20:29:01.880Z,1.67
2023-02-18T20:31:28.570Z,1.90
2023-02-18T20:34:03.386Z,2.60
2023-02-18T20:39:16.123Z,2.45
2023-02-18T20:41:44.060Z,2.30
2023-02-18T20:44:10.184Z,3.15
2023-02-18T20:46:36.917Z,4.05
2023-02-18T20:49:12.231Z,4.65
2023-02-18T20:51:38.665Z,2.85
2023-02-18T20:54:08.160Z,3.35
2023-02-18T20:56:34.810Z,2.70
2023-02-18T20:59:00.652Z,3.22
2023-02-18T21:01:26.491Z,3.85
2023-02-18T21:03:55.540Z,3.42
2023-02-18T21:06:22.510Z,3.75
2023-02-18T21:08:49.382Z,4.38
2023-02-18T21:11:17.077Z,3.97
2023-02-18T21:13:49.968Z,4.45
2023-02-18T21:16:16.312Z,3.20
2023-02-18T21:18:51.827Z,4.07
2023-02-18T21:21:20.155Z,3.17
2023-02-18T21:23:46.177Z,4.13
2023-02-18T21:26:13.228Z,3.75
2023-02-18T21:28:39.511Z,4.50
2023-02-18T21:31:14.242Z,4.30
2023-02-18T21:33:40.491Z,4.95
2023-02-18T21:36:06.349Z,5.60
2023-02-18T21:38:32.698Z,3.00
2023-02-18T21:40:59.193Z,3.03
2023-02-18T21:43:26.012Z,3.08
2023-02-18T21:45:51.954Z,2.97
2023-02-18T21:48:36.824Z,3.63
2023-02-18T21:51:08.297Z,2.83
2023-02-18T21:53:35.167Z,2.38
2023-02-18T21:56:09.001Z,3.22
2023-02-18T21:58:36.009Z,3.63
2023-02-18T22:01:02.524Z,3.47
2023-02-18T22:03:28.348Z,3.20
2023-02-18T22:05:58.114Z,3.28
2023-02-18T22:08:37.932Z,3.17
2023-02-18T22:11:06.223Z,2.97
2023-02-18T22:13:32.070Z,2.72
2023-02-18T22:15:58.137Z,2.75
2023-02-18T22:18:24.059Z,4.28
2023-02-18T22:20:50.009Z,5.20
2023-02-18T22:23:17.916Z,4.40
2023-02-18T22:25:43.903Z,4.28
2023-02-18T22:28:09.633Z,3.33
2023-02-18T22:30:38.311Z,3.13
2023-02-18T22:33:04.117Z,3.35
2023-02-18T22:35:35.161Z,2.88
2023-02-18T22:38:00.957Z,4.05
2023-02-18T22:40:29.343Z,4.72
2023-02-18T22:42:55.153Z,3.70
2023-02-18T22:45:20.900Z,3.17
2023-02-18T22:47:46.697Z,4.20
2023-02-18T22:50:12.526Z,3.38
2023-02-18T22:52:38.362Z,4.55
2023-02-18T22:55:04.474Z,4.32
2023-02-18T22:57:30.224Z,3.72
2023-02-18T22:59:56.828Z,3.63
2023-02-18T23:02:24.438Z,3.95
2023-02-18T23:04:50.381Z,4.55
2023-02-18T23:07:17.125Z,3.38
2023-02-18T23:09:42.929Z,3.65
2023-02-18T23:12:08.792Z,4.05
2023-02-18T23:14:34.590Z,3.67
2023-02-18T23:17:17.498Z,5.05
2023-02-18T23:19:44.620Z,4.60
2023-02-18T23:22:11.317Z,5.03
2023-02-18T23:24:39.677Z,5.25
2023-02-18T23:27:06.417Z,4.20
2023-02-18T23:29:32.366Z,6.32
2023-02-18T23:31:58.152Z,5.50
2023-02-18T23:34:27.968Z,4.38
2023-02-18T23:36:53.900Z,4.90
2023-02-18T23:39:20.303Z,4.18
2023-02-18T23:41:46.611Z,6.07
2023-02-18T23:44:14.255Z,5.18
2023-02-18T23:46:40.137Z,5.82
2023-02-18T23:49:06.290Z,5.68
2023-02-18T23:51:32.138Z,4.78
2023-02-18T23:53:58.141Z,5.65
2023-02-18T23:56:25.155Z,7.32
2023-02-18T23:58:56.754Z,5.30
